Time;durP1;ratioP1;P1;durP2;ratioP2;P2;SDS_P1;SDS_P2;PMS_P1;PMS_P2;Temp;Humidity;BMP_temperature;BMP_pressure;BME280_temperature;BME280_humidity;BME280_pressure;Samples;Min_cycle;Max_cycle;Signal;HPM_P1;HPM_P2
2022/08/07 00:01:33;;;;;;;4.47;2.60;;;;;;;16.28;62.45;102408.19;3585514;39;20322;-63
2022/08/07 00:03:59;;;;;;;7.18;2.83;;;;;;;16.24;62.76;102407.50;3585311;40;20066;-63
2022/08/07 00:06:25;;;;;;;7.55;2.88;;;;;;;16.26;62.76;102420.97;3584219;40;20127;-63
2022/08/07 00:08:51;;;;;;;5.80;2.90;;;;;;;16.23;63.26;102419.31;3584373;39;20055;-63
2022/08/07 00:11:17;;;;;;;5.07;3.08;;;;;;;16.22;63.09;102430.28;3585172;40;20417;-63
2022/08/07 00:13:44;;;;;;;2.92;2.50;;;;;;;16.20;63.30;102415.91;3583481;39;20331;-63
2022/08/07 00:16:11;;;;;;;4.57;3.00;;;;;;;16.17;63.70;102416.09;3585119;40;20047;-64
2022/08/07 00:18:37;;;;;;;4.80;2.80;;;;;;;16.17;63.15;102410.66;3586551;40;20301;-63
2022/08/07 00:21:07;;;;;;;2.92;2.63;;;;;;;16.15;63.42;102413.50;3585284;40;20059;-63
2022/08/07 00:23:39;;;;;;;4.07;2.67;;;;;;;16.11;63.29;102405.63;3584682;40;20060;-64
2022/08/07 00:26:09;;;;;;;3.35;2.67;;;;;;;16.07;63.94;102404.06;3585867;40;20130;-63
2022/08/07 00:28:35;;;;;;;6.80;3.40;;;;;;;16.01;63.98;102405.28;3584840;40;20063;-63
2022/08/07 00:31:08;;;;;;;4.15;3.25;;;;;;;15.98;64.00;102398.22;3584931;40;20059;-63
2022/08/07 00:33:37;;;;;;;4.82;3.22;;;;;;;15.95;64.21;102395.69;3585364;40;20120;-63
2022/08/07 00:36:05;;;;;;;3.75;3.30;;;;;;;15.92;64.27;102398.59;3584522;40;20052;-65
2022/08/07 00:38:32;;;;;;;6.47;3.63;;;;;;;15.87;64.41;102395.28;3585713;40;20106;-65
2022/08/07 00:41:00;;;;;;;4.95;3.03;;;;;;;15.85;64.84;102385.47;3582963;40;20353;-65
2022/08/07 00:43:26;;;;;;;4.68;3.25;;;;;;;15.84;64.64;102381.88;3586740;40;20423;-65
2022/08/07 00:45:51;;;;;;;6.70;3.55;;;;;;;15.82;64.90;102391.06;3585636;39;20060;-64
2022/08/07 00:48:17;;;;;;;5.47;3.30;;;;;;;15.80;65.05;102380.34;3584723;40;20302;-64
2022/08/07 00:50:43;;;;;;;5.65;3.75;;;;;;;15.78;65.23;102410.25;3586145;39;20092;-64
2022/08/07 00:53:08;;;;;;;8.10;3.38;;;;;;;15.76;65.33;102387.78;3584167;40;20379;-64
2022/08/07 00:55:34;;;;;;;5.50;3.50;;;;;;;15.74;65.31;102391.53;3585480;39;20389;-65
2022/08/07 00:58:00;;;;;;;4.97;3.58;;;;;;;15.72;65.79;102388.03;3582615;39;20068;-64
2022/08/07 01:00:26;;;;;;;4.40;3.70;;;;;;;15.65;65.82;102381.19;3584780;40;20136;-63
2022/08/07 01:02:52;;;;;;;4.68;3.80;;;;;;;15.62;65.79;102386.78;3590598;39;20060;-63
2022/08/07 01:05:20;;;;;;;4.15;3.75;;;;;;;15.61;66.16;102376.94;3584454;40;20148;-63
2022/08/07 01:07:45;;;;;;;5.05;3.45;;;;;;;15.54;66.19;102369.16;3584522;40;20075;-63
2022/08/07 01:10:11;;;;;;;4.38;3.78;;;;;;;15.49;66.45;102373.94;3583107;40;20072;-63
2022/08/07 01:12:41;;;;;;;6.88;3.67;;;;;;;15.26;66.63;102341.91;3585031;39;20060;-63
2022/08/07 01:15:08;;;;;;;4.78;3.95;;;;;;;15.19;66.52;102330.53;3585112;40;20137;-62
2022/08/07 01:17:35;;;;;;;6.75;4.00;;;;;;;15.17;66.73;102328.88;3584090;40;20149;-62
2022/08/07 01:20:08;;;;;;;6.15;3.80;;;;;;;15.36;66.65;102367.50;3583848;40;20095;-63
2022/08/07 01:22:37;;;;;;;4.28;3.85;;;;;;;15.33;66.97;102364.97;3584522;40;20056;-63
2022/08/07 01:25:04;;;;;;;8.50;4.07;;;;;;;15.30;67.42;102366.00;3583461;40;20380;-63
2022/08/07 01:27:30;;;;;;;5.95;3.90;;;;;;;15.28;66.94;102356.22;3583790;39;20064;-63
2022/08/07 01:29:56;;;;;;;6.35;3.88;;;;;;;15.26;67.14;102360.88;3585626;39;20063;-63
2022/08/07 01:32:22;;;;;;;4.72;4.25;;;;;;;15.21;67.81;102361.09;3582704;39;20130;-63
2022/08/07 01:34:49;;;;;;;5.72;4.05;;;;;;;15.17;67.60;102364.97;3584775;40;20056;-63
2022/08/07 01:37:16;;;;;;;5.18;4.07;;;;;;;15.17;67.46;102359.53;3583237;40;20050;-63
2022/08/07 01:39:44;;;;;;;6.20;3.95;;;;;;;15.02;67.99;102333.31;3585269;39;20293;-63
2022/08/07 01:42:12;;;;;;;6.30;4.43;;;;;;;15.16;67.75;102344.25;3583871;40;20052;-63
2022/08/07 01:44:37;;;;;;;4.70;4.18;;;;;;;15.12;68.02;102350.78;3583627;40;20052;-62
2022/08/07 01:47:03;;;;;;;5.30;4.30;;;;;;;15.08;68.32;102360.94;3583157;40;22077;-63
2022/08/07 01:49:29;;;;;;;7.00;4.20;;;;;;;15.03;68.44;102357.63;3583190;40;20362;-63
2022/08/07 01:51:58;;;;;;;6.90;4.57;;;;;;;15.02;68.44;102363.09;3582990;40;20063;-63
2022/08/07 01:54:32;;;;;;;6.95;4.85;;;;;;;14.97;68.55;102357.06;3583272;40;20064;-62
2022/08/07 01:57:15;;;;;;;;;;;;;;;14.98;68.59;102358.84;3584149;40;20044;-63
2022/08/07 02:00:04;;;;;;;5.70;4.30;;;;;;;14.89;69.17;102354.78;3583590;40;20016;-62
2022/08/07 02:02:52;;;;;;;7.20;4.80;;;;;;;14.85;69.28;102359.50;3584443;40;20048;-63
2022/08/07 02:05:42;;;;;;;7.32;4.82;;;;;;;14.83;69.27;102355.13;3584317;40;20115;-63
2022/08/07 02:08:15;;;;;;;5.57;4.40;;;;;;;14.74;69.40;102334.84;3582600;40;20064;-61
2022/08/07 02:10:44;;;;;;;8.93;4.90;;;;;;;14.70;69.41;102332.41;3584566;40;20181;-63
2022/08/07 02:13:13;;;;;;;5.47;4.68;;;;;;;14.79;69.35;102353.56;3586193;40;20380;-63
2022/08/07 02:15:42;;;;;;;6.22;4.80;;;;;;;14.78;69.66;102352.69;3584280;40;20052;-62
2022/08/07 02:18:13;;;;;;;6.88;5.40;;;;;;;14.62;69.43;102331.00;3583740;40;20051;-62
2022/08/07 02:20:44;;;;;;;7.55;5.00;;;;;;;14.72;69.82;102352.16;3582982;40;20048;-62
2022/08/07 02:23:13;;;;;;;7.68;4.45;;;;;;;14.66;70.17;102352.50;3583603;40;20068;-63
2022/08/07 02:25:41;;;;;;;5.72;5.13;;;;;;;14.65;70.02;102345.31;3586746;39;20055;-63
2022/08/07 02:28:09;;;;;;;7.85;5.45;;;;;;;14.39;69.88;102306.97;3585075;39;20125;-63
2022/08/07 02:30:37;;;;;;;7.45;4.90;;;;;;;14.56;70.18;102335.88;3585285;40;20048;-62
2022/08/07 02:33:06;;;;;;;7.70;5.10;;;;;;;14.64;70.02;102344.44;3584603;40;20063;-62
2022/08/07 02:35:35;;;;;;;7.10;5.05;;;;;;;14.64;69.89;102344.44;3586319;40;20048;-61
2022/08/07 02:38:05;;;;;;;5.30;4.80;;;;;;;14.65;70.25;102345.31;3587264;40;20064;-62
2022/08/07 02:40:33;;;;;;;6.50;5.30;;;;;;;14.61;69.92;102340.06;3585454;40;20091;-63
2022/08/07 02:43:01;;;;;;;8.35;5.00;;;;;;;14.58;69.64;102339.38;3586723;40;20090;-63
2022/08/07 02:45:30;;;;;;;8.32;5.00;;;;;;;14.55;70.12;102337.69;3586168;39;20052;-62
2022/08/07 02:47:56;;;;;;;6.55;5.05;;;;;;;14.53;70.00;102342.34;3585642;40;20405;-63
2022/08/07 02:50:22;;;;;;;10.40;5.03;;;;;;;14.53;70.17;102336.91;3585807;40;20095;-63
2022/08/07 02:52:58;;;;;;;5.93;4.47;;;;;;;14.51;70.20;102327.13;3585148;39;20116;-63
2022/08/07 02:55:32;;;;;;;6.95;4.88;;;;;;;14.49;70.36;102334.41;3587503;40;20130;-63
2022/08/07 02:58:11;;;;;;;8.52;5.00;;;;;;;14.48;70.26;102332.69;3585247;40;20156;-62
2022/08/07 03:00:41;;;;;;;6.97;4.60;;;;;;;14.48;70.20;102328.13;3584450;40;20060;-62
2022/08/07 03:03:09;;;;;;;7.07;5.38;;;;;;;14.45;70.26;102331.00;3585846;40;20056;-62
2022/08/07 03:05:36;;;;;;;7.35;4.80;;;;;;;14.37;70.63;102317.03;3585881;40;20296;-62
2022/08/07 03:08:07;;;;;;;8.18;5.15;;;;;;;14.43;70.26;102332.03;3586402;40;20086;-62
2022/08/07 03:10:34;;;;;;;6.57;5.40;;;;;;;14.19;70.55;102294.53;3585811;40;20390;-62
2022/08/07 03:13:01;;;;;;;6.88;4.85;;;;;;;14.41;70.84;102326.72;3585738;40;20397;-62
2022/08/07 03:15:28;;;;;;;8.60;5.70;;;;;;;14.42;69.92;102330.31;3584710;40;20060;-61
2022/08/07 03:17:55;;;;;;;8.02;5.50;;;;;;;14.39;70.25;102326.78;3584615;40;20386;-62
2022/08/07 03:20:23;;;;;;;6.95;5.50;;;;;;;14.37;70.24;102326.03;3585846;40;20082;-61
2022/08/07 03:22:52;;;;;;;7.05;5.47;;;;;;;14.38;70.99;102324.19;3585604;40;20156;-63
2022/08/07 03:25:19;;;;;;;6.45;5.10;;;;;;;14.38;70.53;102327.75;3587405;40;20079;-62
2022/08/07 03:27:48;;;;;;;8.70;5.05;;;;;;;14.37;70.91;102323.31;3587990;40;20056;-62
2022/08/07 03:30:15;;;;;;;6.82;5.38;;;;;;;14.38;70.56;102326.88;3586499;40;20117;-62
2022/08/07 03:32:46;;;;;;;6.75;5.90;;;;;;;14.36;70.32;102324.25;3584968;40;20113;-62
2022/08/07 03:35:18;;;;;;;9.77;5.65;;;;;;;14.32;70.54;102321.81;3585617;40;20065;-63
2022/08/07 03:37:53;;;;;;;6.47;5.65;;;;;;;14.28;70.84;102328.34;3585197;39;20056;-62
2022/08/07 03:40:20;;;;;;;9.57;5.30;;;;;;;14.26;71.07;102317.59;3585544;40;20060;-62
2022/08/07 03:42:46;;;;;;;8.25;5.50;;;;;;;14.23;71.32;102322.28;3585709;40;20066;-61
2022/08/07 03:45:13;;;;;;;9.18;5.57;;;;;;;14.15;71.24;102323.59;3586020;40;20068;-61
2022/08/07 03:47:39;;;;;;;5.95;5.35;;;;;;;14.13;71.50;102324.63;3585680;40;20377;-61
2022/08/07 03:50:05;;;;;;;9.15;5.70;;;;;;;14.14;71.34;102332.66;3583651;40;20048;-60
2022/08/07 03:52:32;;;;;;;6.72;5.20;;;;;;;14.15;71.18;102337.09;3586987;39;20363;-61
2022/08/07 03:55:00;;;;;;;8.15;5.60;;;;;;;14.12;71.49;102331.00;3585349;40;20061;-61
2022/08/07 03:57:29;;;;;;;7.85;5.82;;;;;;;14.12;71.29;102341.81;3584659;40;20141;-61
2022/08/07 03:59:55;;;;;;;8.65;5.35;;;;;;;14.05;71.64;102334.94;3584706;40;20386;-61
2022/08/07 04:02:22;;;;;;;5.97;5.38;;;;;;;14.00;71.52;102332.50;3584488;40;20044;-62
2022/08/07 04:04:49;;;;;;;8.00;5.35;;;;;;;13.89;71.85;102319.56;3583269;40;20064;-62
2022/08/07 04:07:18;;;;;;;8.02;5.97;;;;;;;13.91;71.65;102324.88;3584427;39;20070;-62
2022/08/07 04:09:50;;;;;;;8.55;5.78;;;;;;;14.02;71.89;102340.50;3583730;39;20043;-62
2022/08/07 04:12:17;;;;;;;7.07;5.50;;;;;;;14.01;71.61;102336.94;3583805;40;20053;-61
2022/08/07 04:14:43;;;;;;;7.70;5.65;;;;;;;14.00;71.50;102348.72;3584247;39;20054;-62
2022/08/07 04:17:09;;;;;;;7.95;6.05;;;;;;;13.96;71.89;102341.72;3583996;40;20055;-62
2022/08/07 04:19:35;;;;;;;6.43;5.78;;;;;;;13.92;71.95;102345.53;3584877;40;20080;-62
2022/08/07 04:22:02;;;;;;;9.32;6.00;;;;;;;13.88;72.08;102344.81;3583809;40;20056;-62
2022/08/07 04:24:30;;;;;;;8.13;5.45;;;;;;;13.84;72.14;102337.81;3584157;40;20064;-62
2022/08/07 04:26:56;;;;;;;7.40;6.10;;;;;;;13.83;72.06;102346.03;3584016;40;20060;-62
2022/08/07 04:29:23;;;;;;;7.03;6.10;;;;;;;13.84;72.16;102345.06;3582675;40;20052;-61
2022/08/07 04:31:49;;;;;;;8.77;6.10;;;;;;;13.88;72.65;102347.50;3582631;40;20059;-62
2022/08/07 04:34:15;;;;;;;11.70;6.10;;;;;;;13.82;72.11;102338.84;3585893;40;20064;-61
2022/08/07 04:36:42;;;;;;;7.47;5.90;;;;;;;13.91;72.15;102357.31;3585124;40;20052;-62
2022/08/07 04:39:08;;;;;;;7.18;5.85;;;;;;;13.91;72.41;102350.06;3584277;40;20404;-62
2022/08/07 04:41:34;;;;;;;11.10;6.60;;;;;;;13.93;72.15;102348.16;3586491;40;20043;-61
2022/08/07 04:44:01;;;;;;;9.50;6.90;;;;;;;13.94;72.53;102349.03;3588116;40;20059;-62
2022/08/07 04:46:43;;;;;;;9.23;6.45;;;;;;;13.90;72.03;102336.63;3586591;39;20115;-62
2022/08/07 04:49:27;;;;;;;7.88;6.28;;;;;;;14.00;71.63;102353.25;3583750;40;20048;-62
2022/08/07 04:52:10;;;;;;;10.45;6.35;;;;;;;13.96;71.78;102347.13;3583535;40;20080;-62
2022/08/07 04:55:02;;;;;;;7.18;5.97;;;;;;;14.01;72.20;102357.69;3583601;40;20061;-61
2022/08/07 04:57:53;;;;;;;7.20;6.50;;;;;;;13.97;71.72;102346.19;3583561;40;20052;-61
2022/08/07 05:01:02;;;;;;;12.55;7.03;;;;;;;14.03;71.56;102361.22;3586556;40;20130;-61
2022/08/07 05:03:50;;;;;;;7.30;6.13;;;;;;;14.04;71.97;102355.72;3583518;40;20070;-62
2022/08/07 05:06:31;;;;;;;9.70;6.60;;;;;;;14.08;72.07;102361.81;3587121;40;20059;-61
2022/08/07 05:09:19;;;;;;;10.52;6.13;;;;;;;14.11;71.45;102362.56;3584780;40;20063;-61
2022/08/07 05:11:52;;;;;;;8.80;6.95;;;;;;;14.11;71.48;102359.88;3585366;40;20375;-61
2022/08/07 05:14:35;;;;;;;;;;;;;;;14.16;71.64;102363.19;3584976;40;20053;-61
2022/08/07 05:17:07;;;;;;;7.88;6.45;;;;;;;14.15;71.41;102364.16;3587307;40;19931;-61
2022/08/07 05:19:45;;;;;;;7.60;6.53;;;;;;;14.23;71.52;102371.84;3584433;40;20063;-62
2022/08/07 05:22:16;;;;;;;8.88;6.10;;;;;;;14.27;71.03;102368.06;3584202;40;20050;-61
2022/08/07 05:24:45;;;;;;;9.65;6.10;;;;;;;14.34;70.99;102377.59;3583718;40;20097;-61
2022/08/07 05:27:16;;;;;;;8.18;6.75;;;;;;;14.42;70.91;102370.88;3586280;39;20048;-62
2022/08/07 05:29:46;;;;;;;8.23;6.65;;;;;;;14.47;70.64;102372.41;3586607;40;20056;-61
2022/08/07 05:32:17;;;;;;;9.23;6.70;;;;;;;14.51;70.66;102367.72;3585513;40;20083;-62
2022/08/07 05:34:45;;;;;;;8.57;6.95;;;;;;;14.53;70.71;102369.41;3583997;40;20059;-62
2022/08/07 05:37:15;;;;;;;7.65;6.63;;;;;;;14.59;70.22;102382.59;3585197;39;20052;-62
2022/08/07 05:39:43;;;;;;;9.90;6.57;;;;;;;14.67;69.87;102382.16;3585614;40;20473;-61
2022/08/07 05:42:11;;;;;;;8.82;6.65;;;;;;;14.66;70.14;102372.31;3587086;39;20543;-61
2022/08/07 05:44:39;;;;;;;9.23;7.10;;;;;;;14.77;69.46;102371.72;3586792;40;20370;-62
2022/08/07 05:47:07;;;;;;;7.88;6.70;;;;;;;14.77;69.11;102366.28;3585564;40;20438;-61
2022/08/07 05:49:35;;;;;;;8.38;6.75;;;;;;;14.56;69.17;102316.94;3587649;40;20056;-62
2022/08/07 05:52:03;;;;;;;12.93;6.47;;;;;;;14.95;68.64;102380.66;3587760;40;20133;-61
2022/08/07 05:54:29;;;;;;;8.77;7.28;;;;;;;14.99;68.32;102377.69;3587310;40;20048;-61
2022/08/07 05:56:57;;;;;;;9.88;7.28;;;;;;;14.98;67.80;102366.97;3585845;39;20091;-62
2022/08/07 05:59:25;;;;;;;10.90;7.15;;;;;;;14.86;67.50;102341.44;3586448;40;20048;-62
2022/08/07 06:01:53;;;;;;;8.85;7.10;;;;;;;15.16;67.91;102384.91;3584353;40;20698;-61
2022/08/07 06:04:22;;;;;;;9.50;6.90;;;;;;;15.07;67.67;102359.19;3583749;40;20063;-61
2022/08/07 06:06:48;;;;;;;7.45;6.45;;;;;;;15.29;67.16;102387.78;3585147;40;20052;-62
2022/08/07 06:09:16;;;;;;;8.45;7.07;;;;;;;15.32;67.23;102383.06;3586827;40;20394;-61
2022/08/07 06:11:44;;;;;;;8.43;7.28;;;;;;;15.39;66.87;102389.00;3588024;40;20059;-61
2022/08/07 06:14:09;;;;;;;11.00;7.30;;;;;;;15.50;67.06;102393.78;3590782;40;20048;-61
2022/08/07 06:16:37;;;;;;;8.27;7.47;;;;;;;15.56;66.43;102388.88;3590494;39;20164;-62
2022/08/07 06:19:05;;;;;;;13.13;7.45;;;;;;;15.61;66.80;102387.78;3587254;39;20052;-61
2022/08/07 06:21:32;;;;;;;11.32;7.55;;;;;;;15.67;66.67;102390.16;3587249;40;20047;-62
2022/08/07 06:23:57;;;;;;;12.18;7.88;;;;;;;15.76;66.85;102386.88;3591243;40;20054;-62
2022/08/07 06:26:24;;;;;;;8.98;7.15;;;;;;;15.87;66.45;102387.13;3585947;40;20060;-61
2022/08/07 06:28:58;;;;;;;8.52;7.60;;;;;;;16.04;65.62;102388.81;3585532;40;20093;-61
2022/08/07 06:31:24;;;;;;;11.00;8.05;;;;;;;16.15;66.02;102396.34;3587478;40;20061;-64
2022/08/07 06:33:49;;;;;;;9.07;7.95;;;;;;;16.27;65.47;102390.19;3587770;39;20444;-64
2022/08/07 06:36:15;;;;;;;10.35;8.23;;;;;;;16.38;64.97;102390.38;3587336;39;20076;-64
2022/08/07 06:38:43;;;;;;;11.05;8.30;;;;;;;16.51;64.57;102395.06;3583793;40;20060;-65
2022/08/07 06:41:42;;;;;;;9.43;7.88;;;;;;;16.60;64.16;102392.63;3585405;40;20060;-63
2022/08/07 06:44:12;;;;;;;9.52;7.65;;;;;;;16.78;64.65;102390.66;3584145;40;20374;-65
2022/08/07 06:46:40;;;;;;;12.95;10.43;;;;;;;16.97;62.44;102384.03;3584528;40;20052;-64
2022/08/07 06:49:06;;;;;;;9.98;7.70;;;;;;;17.15;61.93;102385.56;3584595;39;20045;-64
2022/08/07 06:51:37;;;;;;;8.50;7.63;;;;;;;17.32;62.44;102379.06;3586531;40;20314;-64
2022/08/07 06:54:06;;;;;;;8.48;7.57;;;;;;;17.47;61.77;102371.72;3586115;39;20087;-64
2022/08/07 06:56:38;;;;;;;9.45;7.72;;;;;;;17.62;60.30;102376.13;3583275;40;20433;-64
2022/08/07 06:59:10;;;;;;;8.65;7.45;;;;;;;17.81;59.38;102379.41;3584929;40;20084;-64
2022/08/07 07:01:40;;;;;;;10.67;8.03;;;;;;;17.97;58.84;102364.75;3583112;40;20066;-63
2022/08/07 07:04:07;;;;;;;10.45;7.25;;;;;;;18.09;57.64;102372.94;3586956;40;20389;-63
2022/08/07 07:06:33;;;;;;;8.75;7.35;;;;;;;18.22;57.34;102372.97;3584191;40;20059;-63
2022/08/07 07:09:25;;;;;;;10.77;7.18;;;;;;;18.37;57.99;102375.59;3587036;40;20067;-63
2022/08/07 07:12:27;;;;;;;7.45;6.60;;;;;;;18.57;57.63;102377.78;3589865;40;20064;-63
2022/08/07 07:15:14;;;;;;;7.70;6.60;;;;;;;18.74;56.28;102376.59;3586916;40;20055;-63
2022/08/07 07:18:07;;;;;;;13.57;6.65;;;;;;;18.96;56.58;102384.09;3590752;39;20072;-63
2022/08/07 07:20:48;;;;;;;8.55;6.80;;;;;;;19.16;55.07;102393.56;3587832;40;20092;-63
2022/08/07 07:23:15;;;;;;;9.40;6.88;;;;;;;19.09;55.04;102338.59;3590075;40;20061;-63
2022/08/07 07:25:47;;;;;;;9.13;6.90;;;;;;;19.53;53.84;102375.31;3588227;39;20047;-63
2022/08/07 07:28:26;;;;;;;7.13;6.22;;;;;;;19.76;53.14;102373.66;3585027;40;20059;-62
2022/08/07 07:31:22;;;;;;;6.90;6.18;;;;;;;19.94;52.19;102374.94;3588522;40;20059;-64
2022/08/07 07:33:57;;;;;;;8.05;6.45;;;;;;;20.17;52.32;102375.91;3590494;40;20060;-62
2022/08/07 07:36:25;;;;;;;9.30;7.18;;;;;;;20.08;52.38;102324.75;3589732;39;20059;-63
2022/08/07 07:38:51;;;;;;;8.15;6.32;;;;;;;20.43;50.27;102367.53;3588903;40;20056;-62
2022/08/07 07:41:22;;;;;;;7.68;6.38;;;;;;;20.56;51.50;102368.31;3587783;39;20389;-62
2022/08/07 07:43:52;;;;;;;8.00;6.88;;;;;;;20.39;51.56;102308.66;3589646;39;20067;-63
2022/08/07 07:46:21;;;;;;;7.50;6.70;;;;;;;20.86;50.08;102366.84;3588241;40;20358;-63
2022/08/07 07:48:51;;;;;;;7.32;6.35;;;;;;;21.00;51.05;102354.81;3592220;40;20071;-63
2022/08/07 07:51:21;;;;;;;9.00;7.22;;;;;;;21.06;49.35;102346.97;3588102;39;20087;-63
2022/08/07 07:53:51;;;;;;;9.15;6.82;;;;;;;21.21;50.01;102355.75;3589935;40;20158;-63
2022/08/07 07:56:22;;;;;;;8.98;6.30;;;;;;;21.35;50.78;102362.84;3588350;40;20056;-63
2022/08/07 07:58:49;;;;;;;6.60;6.00;;;;;;;21.43;47.53;102357.59;3585549;40;20072;-63
2022/08/07 08:01:20;;;;;;;12.80;6.28;;;;;;;21.55;49.01;102353.84;3590030;39;20285;-63
2022/08/07 08:03:49;;;;;;;7.10;6.05;;;;;;;21.65;48.07;102344.84;3591276;39;20075;-63
2022/08/07 08:06:18;;;;;;;6.88;6.15;;;;;;;21.85;47.64;102348.63;3589723;39;20051;-63
2022/08/07 08:08:46;;;;;;;6.35;5.75;;;;;;;22.06;47.27;102355.00;3588738;40;21419;-63
2022/08/07 08:11:13;;;;;;;7.72;5.57;;;;;;;22.21;45.17;102352.84;3591909;39;20113;-63
2022/08/07 08:13:44;;;;;;;6.43;5.00;;;;;;;22.35;45.50;102355.22;3587980;39;20043;-63
2022/08/07 08:16:18;;;;;;;5.55;4.88;;;;;;;22.50;43.93;102349.41;3587486;40;20067;-63
2022/08/07 08:18:47;;;;;;;6.03;5.43;;;;;;;22.70;45.10;102351.22;3585074;40;20095;-63
2022/08/07 08:27:09;;;;;;;5.50;4.45;;;;;;;23.20;43.67;102354.06;3596519;39;20066;-63
2022/08/07 08:29:51;;;;;;;8.27;4.60;;;;;;;23.45;42.41;102354.56;3589229;40;20048;-63
2022/08/07 08:32:24;;;;;;;4.82;4.18;;;;;;;23.61;42.87;102352.13;3584085;40;20052;-63
2022/08/07 08:34:55;;;;;;;5.20;3.55;;;;;;;23.74;41.24;102358.22;3584182;40;20121;-63
2022/08/07 08:37:25;;;;;;;4.10;3.70;;;;;;;23.78;41.51;102354.16;3585496;40;20157;-63
2022/08/07 08:39:53;;;;;;;5.97;3.80;;;;;;;23.87;41.13;102357.94;3588157;40;20052;-63
2022/08/07 08:42:23;;;;;;;6.80;3.70;;;;;;;23.99;41.68;102355.91;3585191;40;20055;-63
2022/08/07 08:45:17;;;;;;;5.28;4.50;;;;;;;23.97;41.44;102353.28;3589068;40;20156;-63
2022/08/07 08:48:34;;;;;;;3.88;3.42;;;;;;;24.09;39.35;102354.03;3590219;39;20149;-63
2022/08/07 08:51:07;;;;;;;2.85;2.63;;;;;;;24.25;39.27;102351.53;3582722;40;20056;-63
2022/08/07 08:53:51;;;;;;;3.58;3.25;;;;;;;24.42;39.68;102352.72;3583770;40;20396;-63
2022/08/07 08:56:39;;;;;;;5.38;3.85;;;;;;;24.64;40.53;102356.97;3584027;40;20056;-63
2022/08/07 08:59:23;;;;;;;3.33;3.03;;;;;;;24.87;39.72;102356.63;3585423;40;20121;-63
2022/08/07 09:02:37;;;;;;;5.05;3.00;;;;;;;24.84;38.61;102356.91;3588029;40;20066;-63
2022/08/07 09:05:54;;;;;;;4.72;3.47;;;;;;;24.91;39.62;102352.53;3583184;40;20314;-63
2022/08/07 09:08:46;;;;;;;6.03;3.80;;;;;;;24.99;39.36;102355.38;3587845;40;20046;-63
2022/08/07 09:11:40;;;;;;;4.03;3.38;;;;;;;25.00;39.20;102346.97;3588034;40;20136;-63
2022/08/07 09:14:53;;;;;;;6.82;3.45;;;;;;;25.20;37.79;102353.28;3587301;40;20130;-63
2022/08/07 09:18:04;;;;;;;3.30;3.00;;;;;;;25.32;36.48;102355.81;3571419;40;20152;-63
2022/08/07 09:20:51;;;;;;;4.63;3.13;;;;;;;25.34;36.41;102345.50;3570408;40;20137;-63
2022/08/07 09:23:54;;;;;;;3.55;2.72;;;;;;;25.43;36.62;102347.31;3590811;40;20121;-63
2022/08/07 09:26:54;;;;;;;3.10;2.80;;;;;;;25.52;35.75;102340.88;3590585;39;20048;-65
2022/08/07 09:29:56;;;;;;;4.47;3.20;;;;;;;25.71;36.32;102340.72;3587011;40;20484;-63
2022/08/07 09:32:54;;;;;;;3.72;2.70;;;;;;;25.90;36.51;102338.88;3589830;40;20047;-63
2022/08/07 09:36:02;;;;;;;4.45;2.83;;;;;;;26.06;34.73;102333.50;3590510;40;20112;-63
2022/08/07 09:38:58;;;;;;;4.80;2.95;;;;;;;26.13;35.52;102340.13;3588142;40;20060;-65
2022/08/07 09:42:06;;;;;;;5.07;2.85;;;;;;;26.37;33.99;102338.56;3586522;40;20728;-63
2022/08/07 09:45:13;;;;;;;4.18;3.00;;;;;;;26.48;35.07;102331.91;3583942;40;20306;-63
2022/08/07 09:48:03;;;;;;;4.38;2.50;;;;;;;26.36;33.48;102334.09;3583500;40;20040;-63
2022/08/07 09:50:53;;;;;;;3.40;3.10;;;;;;;26.64;37.07;102332.03;3583352;40;20060;-64
2022/08/07 09:53:24;;;;;;;3.78;3.30;;;;;;;26.79;34.89;102327.63;3584366;40;20044;-63
2022/08/07 09:56:40;;;;;;;3.70;3.30;;;;;;;26.84;33.75;102318.88;3584792;40;20569;-64
2022/08/07 09:59:45;;;;;;;3.38;3.00;;;;;;;27.11;31.91;102311.38;3586640;40;20306;-64
2022/08/07 10:02:29;;;;;;;3.33;2.60;;;;;;;27.07;33.56;102311.69;3586054;40;20387;-64
2022/08/07 10:05:19;;;;;;;3.10;2.50;;;;;;;26.98;32.85;102312.69;3583915;40;20067;-64
2022/08/07 10:08:22;;;;;;;3.45;2.83;;;;;;;27.16;32.36;102304.34;3585931;40;20096;-64
2022/08/07 10:11:44;;;;;;;2.87;2.53;;;;;;;27.49;33.03;102299.75;3586647;40;20059;-64
2022/08/07 10:14:59;;;;;;;3.22;2.50;;;;;;;27.33;31.84;102296.97;3586980;40;20290;-64
2022/08/07 10:18:23;;;;;;;4.50;2.63;;;;;;;27.09;31.72;102257.19;3583904;40;20060;-63
2022/08/07 10:21:28;;;;;;;4.90;2.80;;;;;;;27.16;31.08;102292.44;3583632;40;20067;-63
2022/08/07 10:24:24;;;;;;;3.65;2.58;;;;;;;27.34;34.91;102284.91;3583224;40;20065;-64
2022/08/07 10:27:10;;;;;;;3.38;3.00;;;;;;;27.42;32.38;102287.66;3589237;40;20048;-64
2022/08/07 10:30:10;;;;;;;5.15;2.92;;;;;;;27.57;31.66;102287.84;3584939;40;20059;-64
2022/08/07 10:33:35;;;;;;;3.40;3.10;;;;;;;27.90;30.47;102276.81;3588643;40;20102;-64
2022/08/07 10:36:16;;;;;;;3.05;2.60;;;;;;;28.02;32.51;102282.88;3587304;40;20083;-64
2022/08/07 10:39:01;;;;;;;3.47;2.70;;;;;;;27.89;30.40;102283.41;3589236;40;20060;-64
2022/08/07 10:41:50;;;;;;;3.58;2.53;;;;;;;28.02;30.16;102278.19;3585973;39;20046;-64
2022/08/07 10:45:00;;;;;;;4.03;2.30;;;;;;;28.21;32.65;102271.44;3586306;40;20040;-65
2022/08/07 10:47:44;;;;;;;4.20;2.40;;;;;;;28.15;30.02;102261.06;3586112;40;20079;-65
2022/08/07 10:50:41;;;;;;;2.90;2.60;;;;;;;28.03;31.13;102271.63;3585494;40;20060;-63
2022/08/07 10:53:17;;;;;;;3.67;2.40;;;;;;;28.04;29.90;102275.25;3590209;40;20052;-63
2022/08/07 10:56:12;;;;;;;2.67;2.20;;;;;;;27.96;30.13;102273.38;3590889;39;20074;-64
2022/08/07 10:59:31;;;;;;;2.55;2.33;;;;;;;27.57;30.15;102267.66;3584709;40;20040;-64
2022/08/07 11:02:40;;;;;;;2.28;2.08;;;;;;;27.88;31.31;102268.72;3590702;40;20074;-64
2022/08/07 11:05:54;;;;;;;2.47;2.25;;;;;;;28.05;31.21;102257.66;3587556;40;20048;-63
2022/08/07 11:08:47;;;;;;;3.38;2.58;;;;;;;28.32;29.83;102257.22;3592001;40;20391;-63
2022/08/07 11:11:24;;;;;;;;;;;;;;;28.50;28.21;102234.91;3587950;39;20053;-64
2022/08/07 11:14:14;;;;;;;2.55;2.20;;;;;;;28.68;29.15;102251.25;3583524;40;19990;-65
2022/08/07 11:16:54;;;;;;;7.55;2.40;;;;;;;28.71;30.44;102239.84;3585240;40;20349;-63
2022/08/07 11:19:51;;;;;;;3.03;2.30;;;;;;;28.92;28.65;102237.31;3590741;40;20059;-64
2022/08/07 11:22:33;;;;;;;2.40;2.20;;;;;;;29.03;28.71;102237.97;3584813;40;20083;-63
2022/08/07 11:25:17;;;;;;;2.53;2.28;;;;;;;29.27;29.34;102237.78;3584526;40;20055;-63
2022/08/07 11:28:13;;;;;;;6.00;3.80;;;;;;;29.14;26.19;102223.69;3584859;40;20609;-64
2022/08/07 11:31:05;;;;;;;4.15;2.47;;;;;;;29.27;27.09;102223.06;3590560;39;20378;-64
2022/08/07 11:34:23;;;;;;;2.72;2.10;;;;;;;29.73;29.37;102235.03;3589733;40;20496;-65
2022/08/07 11:37:04;;;;;;;4.72;2.72;;;;;;;29.60;26.10;102226.47;3567603;40;20431;-64
2022/08/07 11:39:35;;;;;;;2.78;2.08;;;;;;;29.67;29.49;102226.59;3570418;40;20110;-64
2022/08/07 11:42:22;;;;;;;2.67;1.80;;;;;;;29.71;28.03;102223.25;3579812;40;20056;-64
2022/08/07 11:45:09;;;;;;;2.20;2.00;;;;;;;29.70;26.55;102218.78;3588054;40;20330;-64
2022/08/07 11:48:04;;;;;;;2.13;1.92;;;;;;;29.91;27.53;102215.28;3585097;40;20048;-64
2022/08/07 11:51:01;;;;;;;2.13;1.90;;;;;;;30.00;26.52;102213.25;3588871;40;20059;-64
2022/08/07 11:53:49;;;;;;;2.08;1.95;;;;;;;30.28;27.76;102222.69;3590504;40;20056;-64
2022/08/07 11:56:58;;;;;;;5.85;2.20;;;;;;;30.46;25.30;102219.53;3591296;40;20043;-64
2022/08/07 11:59:49;;;;;;;2.15;2.05;;;;;;;30.54;25.21;102215.78;3584809;40;20122;-64
2022/08/07 12:02:50;;;;;;;2.42;1.75;;;;;;;30.70;25.12;102217.47;3589628;40;20115;-64
2022/08/07 12:06:05;;;;;;;1.98;1.77;;;;;;;30.82;23.19;102217.88;3584315;40;20417;-65
2022/08/07 12:08:49;;;;;;;1.88;1.75;;;;;;;30.83;24.79;102202.91;3590018;40;20363;-64
2022/08/07 12:11:52;;;;;;;1.80;1.70;;;;;;;30.91;23.41;102205.59;3587476;40;20039;-64
2022/08/07 12:14:26;;;;;;;2.05;1.85;;;;;;;30.79;25.84;102212.72;3587860;40;20040;-64
2022/08/07 12:17:04;;;;;;;3.85;2.10;;;;;;;30.48;26.51;102211.00;3590272;40;20060;-65